sensor_id;sensor_type;location;lat;lon;timestamp;P1;durP1;ratioP1;P2;durP2;ratioP2
52642;SDS011;38531;53.296;6.614;2023-07-28T00:00:37;18.25;;;16.67;;
52642;SDS011;38531;53.296;6.614;2023-07-28T00:03:02;5.45;;;1.58;;
52642;SDS011;38531;53.296;6.614;2023-07-28T00:05:28;3.88;;;1.20;;
52642;SDS011;38531;53.296;6.614;2023-07-28T00:07:54;2.28;;;1.10;;
52642;SDS011;38531;53.296;6.614;2023-07-28T00:10:19;2.50;;;1.30;;
52642;SDS011;38531;53.296;6.614;2023-07-28T00:12:45;2.25;;;1.00;;
52642;SDS011;38531;53.296;6.614;2023-07-28T00:15:11;3.38;;;1.27;;
52642;SDS011;38531;53.296;6.614;2023-07-28T00:17:36;7.22;;;3.05;;
52642;SDS011;38531;53.296;6.614;2023-07-28T00:20:02;2.40;;;0.95;;
52642;SDS011;38531;53.296;6.614;2023-07-28T00:22:28;2.25;;;1.15;;
52642;SDS011;38531;53.296;6.614;2023-07-28T00:24:54;4.05;;;1.10;;
52642;SDS011;38531;53.296;6.614;2023-07-28T00:27:19;2.00;;;0.90;;
52642;SDS011;38531;53.296;6.614;2023-07-28T00:29:45;2.13;;;1.20;;
52642;SDS011;38531;53.296;6.614;2023-07-28T00:32:11;2.70;;;1.10;;
52642;SDS011;38531;53.296;6.614;2023-07-28T00:34:37;6.85;;;2.05;;
52642;SDS011;38531;53.296;6.614;2023-07-28T00:37:02;4.82;;;1.58;;
52642;SDS011;38531;53.296;6.614;2023-07-28T00:39:28;5.28;;;1.90;;
52642;SDS011;38531;53.296;6.614;2023-07-28T00:41:54;6.35;;;2.45;;
52642;SDS011;38531;53.296;6.614;2023-07-28T00:44:19;8.27;;;1.92;;
52642;SDS011;38531;53.296;6.614;2023-07-28T00:46:45;10.20;;;3.03;;
52642;SDS011;38531;53.296;6.614;2023-07-28T00:49:11;7.45;;;2.63;;
52642;SDS011;38531;53.296;6.614;2023-07-28T00:51:37;4.43;;;1.65;;
52642;SDS011;38531;53.296;6.614;2023-07-28T00:54:03;10.43;;;2.47;;
52642;SDS011;38531;53.296;6.614;2023-07-28T00:56:30;8.10;;;2.33;;
52642;SDS011;38531;53.296;6.614;2023-07-28T00:58:56;6.40;;;1.60;;
52642;SDS011;38531;53.296;6.614;2023-07-28T01:01:22;3.17;;;1.35;;
52642;SDS011;38531;53.296;6.614;2023-07-28T01:03:48;8.05;;;2.03;;
52642;SDS011;38531;53.296;6.614;2023-07-28T01:09:15;7.07;;;2.53;;
52642;SDS011;38531;53.296;6.614;2023-07-28T01:11:54;7.30;;;2.03;;
52642;SDS011;38531;53.296;6.614;2023-07-28T01:14:19;4.18;;;1.90;;
52642;SDS011;38531;53.296;6.614;2023-07-28T01:16:45;4.93;;;1.58;;
52642;SDS011;38531;53.296;6.614;2023-07-28T01:19:11;3.85;;;1.30;;
52642;SDS011;38531;53.296;6.614;2023-07-28T01:21:39;3.85;;;1.20;;
52642;SDS011;38531;53.296;6.614;2023-07-28T01:26:58;9.73;;;1.80;;
52642;SDS011;38531;53.296;6.614;2023-07-28T01:29:26;7.70;;;2.67;;
52642;SDS011;38531;53.296;6.614;2023-07-28T01:31:52;5.72;;;1.90;;
52642;SDS011;38531;53.296;6.614;2023-07-28T01:34:18;5.82;;;1.85;;
52642;SDS011;38531;53.296;6.614;2023-07-28T01:36:44;4.75;;;1.35;;
52642;SDS011;38531;53.296;6.614;2023-07-28T01:39:09;1.58;;;0.90;;
52642;SDS011;38531;53.296;6.614;2023-07-28T01:41:35;10.88;;;1.75;;
52642;SDS011;38531;53.296;6.614;2023-07-28T01:44:01;9.70;;;3.10;;
52642;SDS011;38531;53.296;6.614;2023-07-28T01:46:27;5.47;;;1.70;;
52642;SDS011;38531;53.296;6.614;2023-07-28T01:48:53;4.70;;;1.52;;
52642;SDS011;38531;53.296;6.614;2023-07-28T01:51:19;8.15;;;1.50;;
52642;SDS011;38531;53.296;6.614;2023-07-28T01:53:44;6.20;;;1.50;;
52642;SDS011;38531;53.296;6.614;2023-07-28T01:56:10;3.30;;;1.23;;
52642;SDS011;38531;53.296;6.614;2023-07-28T01:58:36;3.47;;;1.50;;
52642;SDS011;38531;53.296;6.614;2023-07-28T02:01:01;9.27;;;2.95;;
52642;SDS011;38531;53.296;6.614;2023-07-28T02:03:27;4.35;;;2.50;;
52642;SDS011;38531;53.296;6.614;2023-07-28T02:05:54;6.85;;;2.53;;
52642;SDS011;38531;53.296;6.614;2023-07-28T02:08:20;5.82;;;1.90;;
52642;SDS011;38531;53.296;6.614;2023-07-28T02:10:45;7.00;;;2.13;;
52642;SDS011;38531;53.296;6.614;2023-07-28T02:13:11;3.85;;;1.38;;
52642;SDS011;38531;53.296;6.614;2023-07-28T02:15:37;3.08;;;1.40;;
52642;SDS011;38531;53.296;6.614;2023-07-28T02:18:02;9.73;;;3.95;;
52642;SDS011;38531;53.296;6.614;2023-07-28T02:20:29;6.90;;;2.38;;
52642;SDS011;38531;53.296;6.614;2023-07-28T02:22:55;3.20;;;1.95;;
52642;SDS011;38531;53.296;6.614;2023-07-28T02:25:21;9.25;;;2.95;;
52642;SDS011;38531;53.296;6.614;2023-07-28T02:27:47;6.50;;;1.90;;
52642;SDS011;38531;53.296;6.614;2023-07-28T02:30:12;5.28;;;1.73;;
52642;SDS011;38531;53.296;6.614;2023-07-28T02:32:38;2.60;;;1.27;;
52642;SDS011;38531;53.296;6.614;2023-07-28T02:35:04;2.58;;;1.63;;
52642;SDS011;38531;53.296;6.614;2023-07-28T02:37:30;2.85;;;1.67;;
52642;SDS011;38531;53.296;6.614;2023-07-28T02:39:56;2.92;;;1.38;;
52642;SDS011;38531;53.296;6.614;2023-07-28T02:42:21;2.20;;;1.30;;
52642;SDS011;38531;53.296;6.614;2023-07-28T02:44:49;2.78;;;1.60;;
52642;SDS011;38531;53.296;6.614;2023-07-28T02:47:14;4.85;;;3.00;;
52642;SDS011;38531;53.296;6.614;2023-07-28T02:49:40;3.08;;;1.85;;
52642;SDS011;38531;53.296;6.614;2023-07-28T02:52:07;3.75;;;1.33;;
52642;SDS011;38531;53.296;6.614;2023-07-28T02:54:33;4.65;;;1.48;;
52642;SDS011;38531;53.296;6.614;2023-07-28T02:56:59;2.15;;;1.17;;
52642;SDS011;38531;53.296;6.614;2023-07-28T02:59:24;5.05;;;1.20;;
52642;SDS011;38531;53.296;6.614;2023-07-28T03:01:50;5.05;;;1.40;;
52642;SDS011;38531;53.296;6.614;2023-07-28T03:04:19;6.18;;;1.83;;
52642;SDS011;38531;53.296;6.614;2023-07-28T03:06:47;3.95;;;1.23;;
52642;SDS011;38531;53.296;6.614;2023-07-28T03:09:13;5.70;;;1.52;;
52642;SDS011;38531;53.296;6.614;2023-07-28T03:11:40;3.25;;;1.58;;
52642;SDS011;38531;53.296;6.614;2023-07-28T03:14:07;2.03;;;1.00;;
52642;SDS011;38531;53.296;6.614;2023-07-28T03:16:33;3.67;;;1.80;;
52642;SDS011;38531;53.296;6.614;2023-07-28T03:18:58;4.07;;;1.40;;
52642;SDS011;38531;53.296;6.614;2023-07-28T03:21:24;8.65;;;1.98;;
52642;SDS011;38531;53.296;6.614;2023-07-28T03:23:50;6.15;;;2.22;;
52642;SDS011;38531;53.296;6.614;2023-07-28T03:26:15;5.75;;;2.05;;
52642;SDS011;38531;53.296;6.614;2023-07-28T03:28:41;4.60;;;1.73;;
52642;SDS011;38531;53.296;6.614;2023-07-28T03:31:07;4.25;;;1.65;;
52642;SDS011;38531;53.296;6.614;2023-07-28T03:33:32;6.18;;;2.53;;
52642;SDS011;38531;53.296;6.614;2023-07-28T03:35:58;6.25;;;2.08;;
52642;SDS011;38531;53.296;6.614;2023-07-28T03:38:24;3.35;;;1.52;;
52642;SDS011;38531;53.296;6.614;2023-07-28T03:40:49;6.15;;;1.85;;
52642;SDS011;38531;53.296;6.614;2023-07-28T03:43:15;3.60;;;1.50;;
52642;SDS011;38531;53.296;6.614;2023-07-28T03:45:41;6.93;;;2.05;;
52642;SDS011;38531;53.296;6.614;2023-07-28T03:48:07;5.22;;;1.50;;
52642;SDS011;38531;53.296;6.614;2023-07-28T03:50:32;5.88;;;2.40;;
52642;SDS011;38531;53.296;6.614;2023-07-28T03:52:58;3.80;;;1.40;;
52642;SDS011;38531;53.296;6.614;2023-07-28T03:55:24;5.03;;;1.60;;
52642;SDS011;38531;53.296;6.614;2023-07-28T03:57:49;3.65;;;1.58;;
52642;SDS011;38531;53.296;6.614;2023-07-28T04:00:15;4.57;;;1.63;;
52642;SDS011;38531;53.296;6.614;2023-07-28T04:02:41;9.23;;;1.60;;
52642;SDS011;38531;53.296;6.614;2023-07-28T04:05:06;3.67;;;2.40;;
52642;SDS011;38531;53.296;6.614;2023-07-28T04:07:32;3.83;;;1.48;;
52642;SDS011;38531;53.296;6.614;2023-07-28T04:09:58;6.50;;;1.52;;
52642;SDS011;38531;53.296;6.614;2023-07-28T04:12:24;4.72;;;1.30;;
52642;SDS011;38531;53.296;6.614;2023-07-28T04:14:49;4.57;;;1.27;;
52642;SDS011;38531;53.296;6.614;2023-07-28T04:17:15;4.43;;;1.30;;
52642;SDS011;38531;53.296;6.614;2023-07-28T04:19:40;8.30;;;1.50;;
52642;SDS011;38531;53.296;6.614;2023-07-28T04:22:06;4.90;;;1.77;;
52642;SDS011;38531;53.296;6.614;2023-07-28T04:24:32;3.35;;;1.50;;
52642;SDS011;38531;53.296;6.614;2023-07-28T04:26:58;2.47;;;1.40;;
52642;SDS011;38531;53.296;6.614;2023-07-28T04:29:23;2.55;;;1.50;;
52642;SDS011;38531;53.296;6.614;2023-07-28T04:31:49;3.72;;;1.10;;
52642;SDS011;38531;53.296;6.614;2023-07-28T04:34:15;6.38;;;1.33;;
52642;SDS011;38531;53.296;6.614;2023-07-28T04:36:41;2.17;;;1.20;;
52642;SDS011;38531;53.296;6.614;2023-07-28T04:39:06;5.43;;;1.77;;
52642;SDS011;38531;53.296;6.614;2023-07-28T04:41:32;2.20;;;1.00;;
52642;SDS011;38531;53.296;6.614;2023-07-28T04:43:58;3.35;;;1.15;;
52642;SDS011;38531;53.296;6.614;2023-07-28T04:46:23;3.95;;;1.55;;
52642;SDS011;38531;53.296;6.614;2023-07-28T04:48:49;3.42;;;1.27;;
52642;SDS011;38531;53.296;6.614;2023-07-28T04:51:15;4.47;;;1.40;;
52642;SDS011;38531;53.296;6.614;2023-07-28T04:53:40;4.65;;;1.27;;
52642;SDS011;38531;53.296;6.614;2023-07-28T04:56:06;1.90;;;1.23;;
52642;SDS011;38531;53.296;6.614;2023-07-28T04:58:33;5.88;;;1.85;;
52642;SDS011;38531;53.296;6.614;2023-07-28T05:00:58;6.18;;;2.13;;
52642;SDS011;38531;53.296;6.614;2023-07-28T05:03:24;7.07;;;1.77;;
52642;SDS011;38531;53.296;6.614;2023-07-28T05:05:50;5.43;;;1.73;;
52642;SDS011;38531;53.296;6.614;2023-07-28T05:08:16;4.45;;;1.70;;
52642;SDS011;38531;53.296;6.614;2023-07-28T05:10:41;5.75;;;1.95;;
52642;SDS011;38531;53.296;6.614;2023-07-28T05:13:10;4.43;;;1.73;;
52642;SDS011;38531;53.296;6.614;2023-07-28T05:15:35;2.92;;;1.55;;
52642;SDS011;38531;53.296;6.614;2023-07-28T05:18:01;7.05;;;2.35;;
52642;SDS011;38531;53.296;6.614;2023-07-28T05:20:27;5.47;;;1.90;;
52642;SDS011;38531;53.296;6.614;2023-07-28T05:22:53;5.55;;;2.17;;
52642;SDS011;38531;53.296;6.614;2023-07-28T05:25:18;5.00;;;1.88;;
52642;SDS011;38531;53.296;6.614;2023-07-28T05:27:44;2.95;;;1.77;;
52642;SDS011;38531;53.296;6.614;2023-07-28T05:30:10;4.85;;;1.75;;
52642;SDS011;38531;53.296;6.614;2023-07-28T05:32:35;4.90;;;2.25;;
52642;SDS011;38531;53.296;6.614;2023-07-28T05:35:01;3.00;;;1.50;;
52642;SDS011;38531;53.296;6.614;2023-07-28T05:37:27;6.90;;;1.70;;
52642;SDS011;38531;53.296;6.614;2023-07-28T05:39:52;4.28;;;2.45;;
52642;SDS011;38531;53.296;6.614;2023-07-28T05:42:18;4.05;;;1.92;;
52642;SDS011;38531;53.296;6.614;2023-07-28T05:44:44;4.55;;;1.95;;
52642;SDS011;38531;53.296;6.614;2023-07-28T05:47:10;2.53;;;1.63;;
52642;SDS011;38531;53.296;6.614;2023-07-28T05:49:36;4.32;;;2.10;;
52642;SDS011;38531;53.296;6.614;2023-07-28T05:52:01;3.35;;;1.85;;
52642;SDS011;38531;53.296;6.614;2023-07-28T05:54:27;2.35;;;1.50;;
52642;SDS011;38531;53.296;6.614;2023-07-28T05:56:53;4.70;;;1.98;;
52642;SDS011;38531;53.296;6.614;2023-07-28T05:59:18;3.95;;;1.98;;
52642;SDS011;38531;53.296;6.614;2023-07-28T06:01:44;3.25;;;2.00;;
52642;SDS011;38531;53.296;6.614;2023-07-28T06:04:10;3.97;;;2.15;;
52642;SDS011;38531;53.296;6.614;2023-07-28T06:06:36;4.82;;;2.10;;
52642;SDS011;38531;53.296;6.614;2023-07-28T06:09:01;8.00;;;2.22;;
52642;SDS011;38531;53.296;6.614;2023-07-28T06:11:27;5.10;;;1.85;;
52642;SDS011;38531;53.296;6.614;2023-07-28T06:13:53;3.28;;;1.88;;
52642;SDS011;38531;53.296;6.614;2023-07-28T06:16:19;2.28;;;1.55;;
52642;SDS011;38531;53.296;6.614;2023-07-28T06:18:44;5.93;;;3.38;;
52642;SDS011;38531;53.296;6.614;2023-07-28T06:21:10;2.65;;;1.90;;
52642;SDS011;38531;53.296;6.614;2023-07-28T06:23:36;3.08;;;1.70;;
52642;SDS011;38531;53.296;6.614;2023-07-28T06:26:01;5.57;;;1.75;;
52642;SDS011;38531;53.296;6.614;2023-07-28T06:28:27;4.93;;;2.88;;
52642;SDS011;38531;53.296;6.614;2023-07-28T06:30:56;2.70;;;1.77;;
52642;SDS011;38531;53.296;6.614;2023-07-28T06:33:23;7.45;;;3.78;;
52642;SDS011;38531;53.296;6.614;2023-07-28T06:35:53;2.40;;;1.77;;
52642;SDS011;38531;53.296;6.614;2023-07-28T06:38:18;2.78;;;1.35;;
52642;SDS011;38531;53.296;6.614;2023-07-28T06:40:44;7.53;;;2.20;;
52642;SDS011;38531;53.296;6.614;2023-07-28T06:43:10;2.75;;;1.98;;
52642;SDS011;38531;53.296;6.614;2023-07-28T06:45:36;5.18;;;2.08;;
52642;SDS011;38531;53.296;6.614;2023-07-28T06:48:01;2.97;;;1.80;;
52642;SDS011;38531;53.296;6.614;2023-07-28T06:50:28;3.17;;;2.08;;
52642;SDS011;38531;53.296;6.614;2023-07-28T06:52:54;7.57;;;4.10;;
52642;SDS011;38531;53.296;6.614;2023-07-28T06:55:19;8.10;;;4.10;;
52642;SDS011;38531;53.296;6.614;2023-07-28T06:57:47;4.47;;;2.63;;
52642;SDS011;38531;53.296;6.614;2023-07-28T07:00:13;4.53;;;2.40;;
52642;SDS011;38531;53.296;6.614;2023-07-28T07:02:40;2.50;;;1.90;;
52642;SDS011;38531;53.296;6.614;2023-07-28T07:05:05;3.35;;;1.50;;
52642;SDS011;38531;53.296;6.614;2023-07-28T07:07:32;1.80;;;1.13;;
52642;SDS011;38531;53.296;6.614;2023-07-28T07:09:58;4.00;;;2.28;;
52642;SDS011;38531;53.296;6.614;2023-07-28T07:12:23;2.33;;;1.50;;
52642;SDS011;38531;53.296;6.614;2023-07-28T07:14:49;2.30;;;1.30;;
52642;SDS011;38531;53.296;6.614;2023-07-28T07:17:15;1.52;;;1.20;;
52642;SDS011;38531;53.296;6.614;2023-07-28T07:19:40;2.83;;;1.58;;
52642;SDS011;38531;53.296;6.614;2023-07-28T07:22:06;3.35;;;2.50;;
52642;SDS011;38531;53.296;6.614;2023-07-28T07:24:32;3.05;;;2.28;;
52642;SDS011;38531;53.296;6.614;2023-07-28T07:26:58;4.82;;;2.92;;
52642;SDS011;38531;53.296;6.614;2023-07-28T07:29:24;2.92;;;1.60;;
52642;SDS011;38531;53.296;6.614;2023-07-28T07:31:49;3.70;;;2.50;;
52642;SDS011;38531;53.296;6.614;2023-07-28T07:34:19;2.35;;;1.60;;
52642;SDS011;38531;53.296;6.614;2023-07-28T07:36:46;2.85;;;2.15;;
52642;SDS011;38531;53.296;6.614;2023-07-28T07:39:12;2.85;;;1.48;;
52642;SDS011;38531;53.296;6.614;2023-07-28T07:41:38;2.03;;;1.38;;
52642;SDS011;38531;53.296;6.614;2023-07-28T07:44:04;2.60;;;1.77;;
52642;SDS011;38531;53.296;6.614;2023-07-28T07:46:30;2.08;;;1.40;;
52642;SDS011;38531;53.296;6.614;2023-07-28T07:48:56;1.30;;;0.90;;
52642;SDS011;38531;53.296;6.614;2023-07-28T07:51:21;2.58;;;1.05;;
52642;SDS011;38531;53.296;6.614;2023-07-28T07:53:47;1.33;;;1.10;;
52642;SDS011;38531;53.296;6.614;2023-07-28T07:56:12;1.85;;;1.05;;
52642;SDS011;38531;53.296;6.614;2023-07-28T07:58:38;2.00;;;1.52;;
52642;SDS011;38531;53.296;6.614;2023-07-28T08:01:04;1.90;;;1.40;;
52642;SDS011;38531;53.296;6.614;2023-07-28T08:03:30;2.13;;;1.13;;
52642;SDS011;38531;53.296;6.614;2023-07-28T08:05:56;2.80;;;1.45;;
52642;SDS011;38531;53.296;6.614;2023-07-28T08:08:23;2.30;;;1.20;;
52642;SDS011;38531;53.296;6.614;2023-07-28T08:10:49;3.47;;;2.15;;
52642;SDS011;38531;53.296;6.614;2023-07-28T08:13:15;1.92;;;1.40;;
52642;SDS011;38531;53.296;6.614;2023-07-28T08:15:44;3.05;;;1.80;;
52642;SDS011;38531;53.296;6.614;2023-07-28T08:18:12;3.58;;;1.17;;
52642;SDS011;38531;53.296;6.614;2023-07-28T08:20:38;1.80;;;1.10;;
52642;SDS011;38531;53.296;6.614;2023-07-28T08:23:03;2.40;;;1.75;;
52642;SDS011;38531;53.296;6.614;2023-07-28T08:25:29;2.50;;;1.70;;
52642;SDS011;38531;53.296;6.614;2023-07-28T08:27:55;4.38;;;1.77;;
52642;SDS011;38531;53.296;6.614;2023-07-28T08:30:20;1.98;;;1.60;;
52642;SDS011;38531;53.296;6.614;2023-07-28T08:32:46;2.40;;;1.63;;
52642;SDS011;38531;53.296;6.614;2023-07-28T08:35:12;4.13;;;1.40;;
52642;SDS011;38531;53.296;6.614;2023-07-28T08:37:37;2.38;;;1.25;;
52642;SDS011;38531;53.296;6.614;2023-07-28T08:40:04;4.10;;;1.52;;
52642;SDS011;38531;53.296;6.614;2023-07-28T08:42:31;2.28;;;1.50;;
52642;SDS011;38531;53.296;6.614;2023-07-28T08:45:02;1.60;;;1.00;;
52642;SDS011;38531;53.296;6.614;2023-07-28T08:47:32;3.65;;;1.52;;
52642;SDS011;38531;53.296;6.614;2023-07-28T08:49:58;2.20;;;1.50;;
52642;SDS011;38531;53.296;6.614;2023-07-28T08:52:23;2.15;;;1.33;;
52642;SDS011;38531;53.296;6.614;2023-07-28T08:54:49;3.30;;;1.70;;
52642;SDS011;38531;53.296;6.614;2023-07-28T08:57:16;2.10;;;1.30;;
52642;SDS011;38531;53.296;6.614;2023-07-28T08:59:42;2.05;;;1.27;;
52642;SDS011;38531;53.296;6.614;2023-07-28T09:02:13;2.65;;;1.50;;
52642;SDS011;38531;53.296;6.614;2023-07-28T09:04:43;2.85;;;1.48;;
52642;SDS011;38531;53.296;6.614;2023-07-28T09:07:10;1.80;;;1.17;;
52642;SDS011;38531;53.296;6.614;2023-07-28T09:09:36;1.65;;;1.00;;
52642;SDS011;38531;53.296;6.614;2023-07-28T09:12:02;2.80;;;1.00;;
52642;SDS011;38531;53.296;6.614;2023-07-28T09:14:29;2.33;;;1.33;;
52642;SDS011;38531;53.296;6.614;2023-07-28T09:16:56;1.95;;;1.33;;
52642;SDS011;38531;53.296;6.614;2023-07-28T09:19:33;3.55;;;1.83;;
52642;SDS011;38531;53.296;6.614;2023-07-28T09:21:59;2.05;;;1.30;;
52642;SDS011;38531;53.296;6.614;2023-07-28T09:24:32;3.15;;;1.60;;
52642;SDS011;38531;53.296;6.614;2023-07-28T09:26:59;2.40;;;1.35;;
52642;SDS011;38531;53.296;6.614;2023-07-28T09:29:26;3.60;;;1.30;;
52642;SDS011;38531;53.296;6.614;2023-07-28T09:31:53;1.70;;;1.45;;
52642;SDS011;38531;53.296;6.614;2023-07-28T09:34:28;2.30;;;1.38;;
52642;SDS011;38531;53.296;6.614;2023-07-28T09:36:54;3.35;;;1.27;;
52642;SDS011;38531;53.296;6.614;2023-07-28T09:39:24;1.38;;;1.00;;
52642;SDS011;38531;53.296;6.614;2023-07-28T09:41:50;2.95;;;1.63;;
52642;SDS011;38531;53.296;6.614;2023-07-28T09:44:16;1.92;;;1.38;;
52642;SDS011;38531;53.296;6.614;2023-07-28T09:46:49;2.03;;;1.00;;
52642;SDS011;38531;53.296;6.614;2023-07-28T09:49:19;1.92;;;1.35;;
52642;SDS011;38531;53.296;6.614;2023-07-28T09:51:48;2.28;;;1.27;;
52642;SDS011;38531;53.296;6.614;2023-07-28T09:54:24;2.05;;;1.10;;
52642;SDS011;38531;53.296;6.614;2023-07-28T09:56:57;1.40;;;1.00;;
52642;SDS011;38531;53.296;6.614;2023-07-28T09:59:28;2.55;;;1.00;;
52642;SDS011;38531;53.296;6.614;2023-07-28T10:01:57;2.33;;;1.52;;
52642;SDS011;38531;53.296;6.614;2023-07-28T10:04:25;1.83;;;1.20;;
52642;SDS011;38531;53.296;6.614;2023-07-28T10:06:52;1.52;;;1.00;;
52642;SDS011;38531;53.296;6.614;2023-07-28T10:09:23;1.50;;;1.20;;
52642;SDS011;38531;53.296;6.614;2023-07-28T10:11:50;2.72;;;1.17;;
52642;SDS011;38531;53.296;6.614;2023-07-28T10:14:37;1.65;;;1.13;;
52642;SDS011;38531;53.296;6.614;2023-07-28T10:17:05;1.40;;;0.90;;
52642;SDS011;38531;53.296;6.614;2023-07-28T10:19:34;2.35;;;1.13;;
52642;SDS011;38531;53.296;6.614;2023-07-28T10:22:01;1.40;;;0.80;;
52642;SDS011;38531;53.296;6.614;2023-07-28T10:24:56;1.60;;;1.05;;
52642;SDS011;38531;53.296;6.614;2023-07-28T10:27:34;1.17;;;0.80;;
52642;SDS011;38531;53.296;6.614;2023-07-28T10:30:02;1.27;;;0.70;;
52642;SDS011;38531;53.296;6.614;2023-07-28T10:32:36;1.20;;;0.80;;
52642;SDS011;38531;53.296;6.614;2023-07-28T10:37:48;0.68;;;0.52;;
52642;SDS011;38531;53.296;6.614;2023-07-28T10:42:52;1.33;;;0.80;;
52642;SDS011;38531;53.296;6.614;2023-07-28T10:45:19;3.10;;;0.70;;
52642;SDS011;38531;53.296;6.614;2023-07-28T10:47:45;1.10;;;0.80;;
52642;SDS011;38531;53.296;6.614;2023-07-28T10:50:13;1.17;;;0.85;;
52642;SDS011;38531;53.296;6.614;2023-07-28T10:52:42;1.17;;;0.88;;
52642;SDS011;38531;53.296;6.614;2023-07-28T10:55:21;1.20;;;0.70;;
52642;SDS011;38531;53.296;6.614;2023-07-28T10:57:49;0.80;;;0.63;;
52642;SDS011;38531;53.296;6.614;2023-07-28T11:00:17;1.17;;;0.95;;
52642;SDS011;38531;53.296;6.614;2023-07-28T11:02:44;2.83;;;1.00;;
52642;SDS011;38531;53.296;6.614;2023-07-28T11:05:12;1.70;;;1.00;;
52642;SDS011;38531;53.296;6.614;2023-07-28T11:07:42;2.88;;;1.33;;
52642;SDS011;38531;53.296;6.614;2023-07-28T11:10:09;1.75;;;1.35;;
52642;SDS011;38531;53.296;6.614;2023-07-28T11:12:40;1.20;;;1.00;;
52642;SDS011;38531;53.296;6.614;2023-07-28T11:15:11;1.60;;;1.23;;
52642;SDS011;38531;53.296;6.614;2023-07-28T11:17:42;1.23;;;0.85;;
52642;SDS011;38531;53.296;6.614;2023-07-28T11:20:17;1.80;;;1.00;;
52642;SDS011;38531;53.296;6.614;2023-07-28T11:25:19;1.25;;;0.80;;
52642;SDS011;38531;53.296;6.614;2023-07-28T11:27:46;1.40;;;0.52;;
52642;SDS011;38531;53.296;6.614;2023-07-28T11:30:13;0.50;;;0.40;;
52642;SDS011;38531;53.296;6.614;2023-07-28T11:32:42;1.83;;;0.47;;
52642;SDS011;38531;53.296;6.614;2023-07-28T11:35:10;0.70;;;0.45;;
52642;SDS011;38531;53.296;6.614;2023-07-28T11:37:37;1.42;;;0.57;;
52642;SDS011;38531;53.296;6.614;2023-07-28T11:40:05;0.60;;;0.40;;
52642;SDS011;38531;53.296;6.614;2023-07-28T11:42:36;0.65;;;0.47;;
52642;SDS011;38531;53.296;6.614;2023-07-28T11:45:03;1.30;;;0.40;;
52642;SDS011;38531;53.296;6.614;2023-07-28T11:47:29;1.10;;;0.50;;
52642;SDS011;38531;53.296;6.614;2023-07-28T11:49:55;0.30;;;0.30;;
52642;SDS011;38531;53.296;6.614;2023-07-28T11:52:32;1.27;;;0.40;;
52642;SDS011;38531;53.296;6.614;2023-07-28T11:55:04;1.10;;;0.55;;
52642;SDS011;38531;53.296;6.614;2023-07-28T11:57:31;2.67;;;0.60;;
52642;SDS011;38531;53.296;6.614;2023-07-28T11:59:58;1.80;;;0.50;;
52642;SDS011;38531;53.296;6.614;2023-07-28T12:02:25;1.40;;;0.40;;
52642;SDS011;38531;53.296;6.614;2023-07-28T12:04:52;1.63;;;0.40;;
52642;SDS011;38531;53.296;6.614;2023-07-28T12:07:19;1.25;;;0.70;;
52642;SDS011;38531;53.296;6.614;2023-07-28T12:09:56;0.98;;;0.47;;
52642;SDS011;38531;53.296;6.614;2023-07-28T12:12:27;1.05;;;0.30;;
52642;SDS011;38531;53.296;6.614;2023-07-28T12:14:55;1.45;;;0.40;;
52642;SDS011;38531;53.296;6.614;2023-07-28T12:17:24;1.05;;;0.47;;
52642;SDS011;38531;53.296;6.614;2023-07-28T12:19:59;0.70;;;0.40;;
52642;SDS011;38531;53.296;6.614;2023-07-28T12:22:27;0.70;;;0.30;;
52642;SDS011;38531;53.296;6.614;2023-07-28T12:24:53;0.73;;;0.43;;
52642;SDS011;38531;53.296;6.614;2023-07-28T12:27:20;0.77;;;0.25;;
52642;SDS011;38531;53.296;6.614;2023-07-28T12:29:48;0.30;;;0.20;;
52642;SDS011;38531;53.296;6.614;2023-07-28T12:32:14;1.25;;;0.30;;
52642;SDS011;38531;53.296;6.614;2023-07-28T12:34:40;1.38;;;0.30;;
52642;SDS011;38531;53.296;6.614;2023-07-28T12:37:06;0.85;;;0.28;;
52642;SDS011;38531;53.296;6.614;2023-07-28T12:39:33;0.73;;;0.32;;
52642;SDS011;38531;53.296;6.614;2023-07-28T12:42:04;1.55;;;0.30;;
52642;SDS011;38531;53.296;6.614;2023-07-28T12:44:31;0.63;;;0.45;;
52642;SDS011;38531;53.296;6.614;2023-07-28T12:46:56;0.40;;;0.30;;
52642;SDS011;38531;53.296;6.614;2023-07-28T12:49:22;0.50;;;0.25;;
52642;SDS011;38531;53.296;6.614;2023-07-28T12:51:48;0.60;;;0.30;;
52642;SDS011;38531;53.296;6.614;2023-07-28T12:54:13;0.73;;;0.30;;
52642;SDS011;38531;53.296;6.614;2023-07-28T12:56:39;1.10;;;0.38;;
52642;SDS011;38531;53.296;6.614;2023-07-28T12:59:05;0.40;;;0.20;;
52642;SDS011;38531;53.296;6.614;2023-07-28T13:01:31;0.30;;;0.30;;
52642;SDS011;38531;53.296;6.614;2023-07-28T13:03:56;2.08;;;0.40;;
52642;SDS011;38531;53.296;6.614;2023-07-28T13:06:22;0.40;;;0.30;;
52642;SDS011;38531;53.296;6.614;2023-07-28T13:08:48;0.65;;;0.52;;
52642;SDS011;38531;53.296;6.614;2023-07-28T13:11:13;0.30;;;0.30;;
52642;SDS011;38531;53.296;6.614;2023-07-28T13:13:39;0.52;;;0.40;;
52642;SDS011;38531;53.296;6.614;2023-07-28T13:16:06;1.27;;;0.35;;
52642;SDS011;38531;53.296;6.614;2023-07-28T13:18:31;2.90;;;0.63;;
52642;SDS011;38531;53.296;6.614;2023-07-28T13:20:58;0.77;;;0.35;;
52642;SDS011;38531;53.296;6.614;2023-07-28T13:23:24;0.98;;;0.25;;
52642;SDS011;38531;53.296;6.614;2023-07-28T13:25:50;2.17;;;0.38;;
52642;SDS011;38531;53.296;6.614;2023-07-28T13:28:17;1.27;;;0.20;;
52642;SDS011;38531;53.296;6.614;2023-07-28T13:30:43;1.63;;;0.30;;
52642;SDS011;38531;53.296;6.614;2023-07-28T13:33:09;0.65;;;0.30;;
52642;SDS011;38531;53.296;6.614;2023-07-28T13:35:35;0.20;;;0.20;;
52642;SDS011;38531;53.296;6.614;2023-07-28T13:38:01;1.23;;;0.40;;
52642;SDS011;38531;53.296;6.614;2023-07-28T13:40:36;0.40;;;0.30;;
52642;SDS011;38531;53.296;6.614;2023-07-28T13:43:02;1.90;;;0.20;;
52642;SDS011;38531;53.296;6.614;2023-07-28T13:45:27;0.70;;;0.30;;
52642;SDS011;38531;53.296;6.614;2023-07-28T13:47:53;0.82;;;0.30;;
52642;SDS011;38531;53.296;6.614;2023-07-28T13:50:19;3.40;;;0.60;;
52642;SDS011;38531;53.296;6.614;2023-07-28T13:52:45;0.30;;;0.30;;
52642;SDS011;38531;53.296;6.614;2023-07-28T13:55:14;0.30;;;0.20;;
52642;SDS011;38531;53.296;6.614;2023-07-28T13:58:44;0.20;;;0.20;;
52642;SDS011;38531;53.296;6.614;2023-07-28T14:01:10;4.50;;;0.60;;
52642;SDS011;38531;53.296;6.614;2023-07-28T14:03:36;3.15;;;0.60;;
52642;SDS011;38531;53.296;6.614;2023-07-28T14:06:03;3.08;;;0.50;;
52642;SDS011;38531;53.296;6.614;2023-07-28T14:08:30;7.50;;;1.73;;
52642;SDS011;38531;53.296;6.614;2023-07-28T14:10:58;1.25;;;0.50;;
52642;SDS011;38531;53.296;6.614;2023-07-28T14:13:38;0.30;;;0.20;;
52642;SDS011;38531;53.296;6.614;2023-07-28T14:19:25;3.63;;;0.50;;
52642;SDS011;38531;53.296;6.614;2023-07-28T14:25:28;0.30;;;0.20;;
52642;SDS011;38531;53.296;6.614;2023-07-28T14:27:56;0.90;;;0.40;;
52642;SDS011;38531;53.296;6.614;2023-07-28T14:31:23;0.50;;;0.22;;
52642;SDS011;38531;53.296;6.614;2023-07-28T14:34:10;0.38;;;0.32;;
52642;SDS011;38531;53.296;6.614;2023-07-28T14:37:04;0.63;;;0.30;;
52642;SDS011;38531;53.296;6.614;2023-07-28T14:39:40;1.15;;;0.20;;
52642;SDS011;38531;53.296;6.614;2023-07-28T14:42:19;0.50;;;0.40;;
52642;SDS011;38531;53.296;6.614;2023-07-28T14:44:45;0.50;;;0.20;;
52642;SDS011;38531;53.296;6.614;2023-07-28T14:47:17;0.60;;;0.30;;
52642;SDS011;38531;53.296;6.614;2023-07-28T14:50:16;0.73;;;0.40;;
52642;SDS011;38531;53.296;6.614;2023-07-28T14:55:54;1.23;;;0.40;;
52642;SDS011;38531;53.296;6.614;2023-07-28T15:01:40;1.23;;;0.50;;
52642;SDS011;38531;53.296;6.614;2023-07-28T15:04:15;1.67;;;0.40;;
52642;SDS011;38531;53.296;6.614;2023-07-28T15:10:20;0.57;;;0.20;;
52642;SDS011;38531;53.296;6.614;2023-07-28T15:16:22;0.85;;;0.30;;
52642;SDS011;38531;53.296;6.614;2023-07-28T15:19:33;0.68;;;0.30;;
52642;SDS011;38531;53.296;6.614;2023-07-28T15:22:18;0.60;;;0.20;;
52642;SDS011;38531;53.296;6.614;2023-07-28T15:25:02;0.93;;;0.20;;